createdAt,value
2023-04-25T00:02:01.292Z,2.3
2023-04-25T00:04:04.562Z,1.1
2023-04-25T00:06:07.472Z,1.8
2023-04-25T00:08:10.555Z,2.5
2023-04-25T00:10:13.619Z,2.3
2023-04-25T00:14:19.757Z,1.8
2023-04-25T00:16:26.123Z,1.6
2023-04-25T00:18:29.151Z,1.6
2023-04-25T00:20:32.267Z,1.4
2023-04-25T00:21:35.366Z,1.3
2023-04-25T00:23:38.475Z,1.9
2023-04-25T00:25:41.513Z,1.1
2023-04-25T00:31:54.105Z,2.5
2023-04-25T00:33:57.056Z,0.7
2023-04-25T00:36:00.134Z,2.1
2023-04-25T00:38:03.213Z,1.6
2023-04-25T00:40:06.277Z,0.8
2023-04-25T00:42:09.362Z,2.4
2023-04-25T00:44:15.647Z,2
2023-04-25T00:46:18.723Z,1.4
2023-04-25T00:48:21.757Z,2.6
2023-04-25T00:50:24.864Z,2
2023-04-25T00:52:27.886Z,2.6
2023-04-25T00:54:30.948Z,1.4
2023-04-25T00:56:34.043Z,0.8
2023-04-25T00:58:40.294Z,1
2023-04-25T01:00:43.462Z,2.9
2023-04-25T01:02:46.674Z,2.2
2023-04-25T01:04:49.467Z,4.8
2023-04-25T01:06:52.552Z,3.2
2023-04-25T01:08:55.606Z,2.3
2023-04-25T01:10:58.661Z,1.3
2023-04-25T01:18:14.283Z,4.3
2023-04-25T01:20:17.259Z,1.5
2023-04-25T01:22:20.340Z,2.1
2023-04-25T01:24:23.380Z,2.2
2023-04-25T01:28:32.691Z,1.5
2023-04-25T01:30:35.746Z,1.3
2023-04-25T01:36:44.986Z,2.4
2023-04-25T01:38:47.999Z,0.9
2023-04-25T01:40:54.252Z,2.3
2023-04-25T01:42:57.355Z,2.3
2023-04-25T01:47:03.446Z,2.1
2023-04-25T01:49:06.507Z,2.3
2023-04-25T01:51:09.555Z,2.4
2023-04-25T01:53:12.665Z,2
2023-04-25T02:16:21.189Z,2.5
2023-04-25T02:18:24.162Z,0.8
2023-04-25T02:20:27.226Z,1.9
2023-04-25T02:22:33.507Z,1.7
2023-04-25T02:24:36.561Z,1.8
2023-04-25T02:30:45.730Z,1.8
2023-04-25T02:32:48.844Z,2.6
2023-04-25T02:34:51.842Z,2.9
2023-04-25T02:36:58.101Z,2
2023-04-25T02:39:01.159Z,1.7
2023-04-25T02:41:04.181Z,1.5
2023-04-25T02:43:07.263Z,1.4
2023-04-25T02:45:10.285Z,1.2
2023-04-25T02:47:13.376Z,2
2023-04-25T02:49:16.407Z,2.2
2023-04-25T02:51:22.641Z,1.8
2023-04-25T02:53:25.717Z,1.3
2023-04-25T02:55:28.757Z,1.1
2023-04-25T03:12:59.438Z,2
2023-04-25T03:19:11.780Z,1.5
2023-04-25T03:21:14.811Z,1.8
2023-04-25T03:23:17.855Z,1.8
2023-04-25T03:27:23.948Z,2.3
2023-04-25T03:29:26.995Z,1.6
2023-04-25T03:31:30.075Z,2.1
2023-04-25T03:35:39.340Z,1.9
2023-04-25T03:37:42.351Z,1.1
2023-04-25T03:41:48.448Z,3.4
2023-04-25T03:43:51.674Z,2.3
2023-04-25T03:45:54.593Z,1.5
2023-04-25T03:48:00.807Z,1.9
2023-04-25T03:50:03.851Z,1.7
2023-04-25T03:52:06.884Z,2.1
2023-04-25T03:54:09.939Z,4.1
2023-04-25T03:58:16.019Z,1.8
2023-04-25T04:04:28.640Z,0.9
2023-04-25T04:06:31.426Z,2
2023-04-25T04:07:34.548Z,2
2023-04-25T04:17:53.069Z,0.8
2023-04-25T04:19:56.064Z,1
2023-04-25T04:21:59.110Z,1.4
2023-04-25T04:26:05.215Z,0.5
2023-04-25T04:28:08.275Z,0.5
2023-04-25T04:30:14.523Z,0.7
2023-04-25T04:32:17.552Z,0.4
2023-04-25T04:34:20.597Z,0.6
2023-04-25T04:38:26.680Z,0.1
2023-04-25T04:40:29.732Z,0.7
2023-04-25T04:42:32.755Z,0.1
2023-04-25T04:44:39.041Z,0.6
2023-04-25T04:46:42.148Z,0.7
2023-04-25T04:48:45.109Z,0.8
2023-04-25T04:50:48.184Z,0.5
2023-04-25T04:52:51.197Z,0.6
2023-04-25T04:56:57.306Z,0.9
2023-04-25T04:59:03.546Z,0.7
2023-04-25T05:01:06.622Z,0.5
2023-04-25T05:03:09.866Z,0.3
2023-04-25T05:04:12.994Z,0.6
2023-04-25T05:08:18.855Z,0.8
2023-04-25T05:18:37.272Z,0.3
2023-04-25T05:20:40.325Z,1.1
2023-04-25T05:26:52.680Z,0.1
2023-04-25T05:30:58.759Z,0.4
2023-04-25T05:37:07.889Z,0.6
2023-04-25T05:39:10.953Z,1.3
2023-04-25T05:41:17.193Z,0.8
2023-04-25T05:43:20.247Z,0.4
2023-04-25T05:45:23.296Z,0.3
2023-04-25T05:53:35.447Z,0.8
2023-04-25T05:55:41.724Z,0.6
2023-04-25T06:02:17.694Z,0.5
2023-04-25T06:04:21.024Z,0.4
2023-04-25T06:08:30.050Z,0.4
2023-04-25T06:14:39.172Z,0.6
2023-04-25T06:16:42.198Z,0.4
2023-04-25T06:18:45.269Z,1.4
2023-04-25T06:20:48.309Z,0.1
2023-04-25T06:22:54.576Z,0.3
2023-04-25T06:24:57.634Z,0.5
2023-04-25T06:27:00.676Z,0.6
2023-04-25T06:29:03.746Z,0.7
2023-04-25T06:31:06.794Z,0.2
2023-04-25T06:33:09.949Z,0.1
2023-04-25T06:35:12.945Z,0.4
2023-04-25T06:37:19.177Z,0.8
2023-04-25T06:39:22.262Z,0.4
2023-04-25T06:41:25.303Z,0.5
2023-04-25T06:43:28.352Z,0.3
2023-04-25T06:45:31.424Z,0.5
2023-04-25T06:47:34.504Z,1.2
2023-04-25T06:49:37.525Z,0
2023-04-25T06:51:43.818Z,0.2
2023-04-25T06:53:46.837Z,0.9
2023-04-25T06:55:49.887Z,0.6
2023-04-25T06:56:53.021Z,0.4
2023-04-25T06:58:56.099Z,1
2023-04-25T07:00:59.175Z,0.3
2023-04-25T07:03:02.321Z,0.3
2023-04-25T07:07:11.548Z,0.6
2023-04-25T07:11:17.691Z,0.3
2023-04-25T07:13:20.757Z,0.2
2023-04-25T07:15:23.840Z,0.4
2023-04-25T07:17:26.959Z,0.9
2023-04-25T07:19:33.215Z,0.2
2023-04-25T07:21:36.313Z,0.7
2023-04-25T07:23:39.420Z,0
2023-04-25T07:33:59.863Z,0.1
2023-04-25T07:36:01.331Z,0.1
2023-04-25T07:38:04.461Z,2.9
2023-04-25T07:40:07.572Z,0.1
2023-04-25T07:42:10.600Z,0
2023-04-25T07:44:13.625Z,0.1
2023-04-25T07:53:31.968Z,0.6
2023-04-25T07:55:34.982Z,0
2023-04-25T07:57:38.011Z,0
2023-04-25T07:59:41.068Z,0
2023-04-25T08:01:48.979Z,0.1
2023-04-25T08:03:52.252Z,0
2023-04-25T08:05:55.381Z,0
2023-04-25T08:07:58.340Z,0
2023-04-25T08:12:04.579Z,0
2023-04-25T08:14:07.705Z,0
2023-04-25T08:16:14.120Z,0
2023-04-25T08:18:17.946Z,0.3
2023-04-25T08:20:20.316Z,0
2023-04-25T08:22:23.356Z,0.2
2023-04-25T08:24:26.473Z,0.8
2023-04-25T08:26:29.579Z,0.1
2023-04-25T08:28:32.680Z,0
2023-04-25T08:30:38.985Z,0
2023-04-25T08:32:42.157Z,0
2023-04-25T08:34:45.225Z,0
2023-04-25T08:36:48.339Z,0.1
2023-04-25T08:38:53.822Z,0
2023-04-25T08:40:54.517Z,0.1
2023-04-25T08:45:06.188Z,0.2
2023-04-25T08:47:07.151Z,0.1
2023-04-25T08:49:10.109Z,0.1
2023-04-25T08:50:13.173Z,0.1
2023-04-25T08:52:16.215Z,1
2023-04-25T08:56:22.280Z,0.1
2023-04-25T08:58:28.417Z,0.3
2023-04-25T09:00:31.439Z,0
2023-04-25T09:02:34.611Z,0.1
2023-04-25T09:04:37.509Z,0.1
2023-04-25T09:08:43.574Z,0.1
2023-04-25T09:10:28.992Z,0
2023-04-25T09:10:46.585Z,0
2023-04-25T09:12:52.740Z,0.2
2023-04-25T09:14:55.785Z,0.6
2023-04-25T09:16:58.886Z,0
2023-04-25T09:19:01.853Z,0.1
2023-04-25T09:21:12.604Z,0.1
2023-04-25T09:41:41.525Z,0
2023-04-25T09:45:47.634Z,0.4
2023-04-25T09:48:17.103Z,0
2023-04-25T09:50:20.167Z,0.1
2023-04-25T09:52:25.360Z,0.2
2023-04-25T09:54:29.374Z,0.3
2023-04-25T09:56:32.540Z,0.1
2023-04-25T09:58:35.683Z,0.2
2023-04-25T10:02:42.101Z,1.1
2023-04-25T10:08:54.591Z,0.2
2023-04-25T10:13:00.863Z,0.3
2023-04-25T10:17:07.192Z,0.3
2023-04-25T10:19:10.276Z,0.1
2023-04-25T10:21:13.435Z,0.1
2023-04-25T10:27:26.037Z,0
2023-04-25T10:29:29.137Z,0.7
2023-04-25T10:33:35.374Z,0
2023-04-25T10:35:38.459Z,0.3
2023-04-25T10:37:44.794Z,0
2023-04-25T10:39:47.919Z,0.4
2023-04-25T10:41:51.030Z,0
2023-04-25T10:42:54.203Z,0
2023-04-25T10:44:57.325Z,2
2023-04-25T10:47:00.529Z,0.1
2023-04-25T10:53:12.978Z,0.1
2023-04-25T10:55:16.095Z,0.2
2023-04-25T10:57:19.201Z,0.7
2023-04-25T10:59:22.258Z,0.3
2023-04-25T11:03:28.515Z,0
2023-04-25T11:05:36.471Z,0.1
2023-04-25T11:07:37.493Z,0.2
2023-04-25T11:09:40.543Z,0.1
2023-04-25T11:11:43.563Z,0
2023-04-25T11:13:46.578Z,0
2023-04-25T11:15:55.128Z,0
2023-04-25T11:38:29.608Z,0.2
2023-04-25T11:39:32.342Z,0
2023-04-25T11:41:35.405Z,0.5
2023-04-25T11:55:59.718Z,0.4
2023-04-25T11:58:02.786Z,0.1
2023-04-25T12:00:05.787Z,0.2
2023-04-25T12:02:11.988Z,0.5
2023-04-25T12:04:15.232Z,0
2023-04-25T12:06:18.084Z,0.1
2023-04-25T12:08:21.044Z,0.1
2023-04-25T12:10:24.091Z,0.1
2023-04-25T12:12:27.120Z,0.4
2023-04-25T12:14:30.177Z,0.1
2023-04-25T12:16:36.433Z,0.1
2023-04-25T12:18:40.948Z,0
2023-04-25T12:20:42.413Z,0.2
2023-04-25T12:22:45.515Z,0.1
2023-04-25T12:24:48.515Z,0.1
2023-04-25T12:26:51.546Z,0
2023-04-25T12:28:54.609Z,0.2
2023-04-25T12:31:00.855Z,0.3
2023-04-25T12:33:03.818Z,0.1
2023-04-25T12:36:10.032Z,0.1
2023-04-25T12:38:12.967Z,0.1
2023-04-25T12:40:15.989Z,0
2023-04-25T12:44:25.211Z,0.3
2023-04-25T12:46:28.292Z,0.1
2023-04-25T12:48:31.300Z,0.4
2023-04-25T12:50:34.308Z,0
2023-04-25T12:54:40.415Z,0
2023-04-25T12:58:49.900Z,0
2023-04-25T13:11:07.826Z,0.1
2023-04-25T13:15:16.962Z,0.1
2023-04-25T13:17:19.985Z,0.2
2023-04-25T13:21:26.047Z,0.5
2023-04-25T13:31:44.334Z,0.3
2023-04-25T13:34:13.750Z,0.4
2023-04-25T13:36:16.690Z,0.3
2023-04-25T13:38:19.714Z,0.6
2023-04-25T13:40:26.028Z,0
2023-04-25T13:42:28.849Z,0.1
2023-04-25T13:44:31.838Z,0.2
2023-04-25T13:46:46.132Z,0
2023-04-25T13:48:37.848Z,0.4
2023-04-25T13:50:40.824Z,0.1
2023-04-25T13:52:43.843Z,0.2
2023-04-25T13:54:49.927Z,0.2
2023-04-25T13:56:54.503Z,0.5
2023-04-25T13:58:57.427Z,0
2023-04-25T14:01:00.491Z,0.1
2023-04-25T14:03:03.451Z,0.1
2023-04-25T14:05:06.519Z,0.4
2023-04-25T14:07:09.394Z,0.4
2023-04-25T14:09:15.444Z,0.3
2023-04-25T14:11:18.432Z,0.4
2023-04-25T14:13:21.428Z,0.1
2023-04-25T14:15:24.422Z,0.1
2023-04-25T14:17:27.464Z,0.1
2023-04-25T14:19:30.432Z,0.3
2023-04-25T14:21:33.516Z,0.8
2023-04-25T14:23:39.586Z,0.8
2023-04-25T14:25:42.574Z,0.2
2023-04-25T14:27:45.619Z,0.3
2023-04-25T14:28:48.688Z,0.5
2023-04-25T14:30:51.798Z,0.3
2023-04-25T14:32:54.762Z,0
2023-04-25T14:34:57.749Z,0.2
2023-04-25T14:37:03.900Z,1.2
2023-04-25T14:39:06.925Z,0.1
2023-04-25T14:41:09.969Z,0.2
2023-04-25T14:43:13.047Z,0.1
2023-04-25T14:45:16.110Z,0.3
2023-04-25T14:51:28.333Z,0.1
2023-04-25T14:53:31.377Z,0.3
2023-04-25T14:57:37.494Z,0.3
2023-04-25T14:59:40.529Z,0.5
2023-04-25T15:01:43.596Z,0.1
2023-04-25T15:03:46.893Z,0
2023-04-25T15:05:52.802Z,0.1
2023-04-25T15:07:55.865Z,0.3
2023-04-25T15:12:01.933Z,0.2
2023-04-25T15:14:04.996Z,1
2023-04-25T15:16:08.072Z,0
2023-04-25T15:24:23.347Z,0
2023-04-25T15:27:29.490Z,0.1
2023-04-25T15:29:32.545Z,0.1
2023-04-25T15:31:35.606Z,0.1
2023-04-25T15:33:41.731Z,0.4
2023-04-25T15:35:44.797Z,0.4
2023-04-25T15:37:47.862Z,0
2023-04-25T15:41:53.947Z,0
2023-04-25T15:46:00.171Z,0
2023-04-25T15:50:09.290Z,0.4
2023-04-25T15:52:12.357Z,0
2023-04-25T15:54:15.355Z,0.3
2023-04-25T15:56:18.424Z,0.1
2023-04-25T15:58:21.476Z,0.1
2023-04-25T16:00:24.504Z,0.5
2023-04-25T16:02:30.887Z,0.1
2023-04-25T16:04:33.829Z,1.6
2023-04-25T16:06:36.801Z,0.2
2023-04-25T16:08:39.847Z,0.2
2023-04-25T16:10:42.854Z,0.3
2023-04-25T16:12:45.940Z,0.1
2023-04-25T16:14:48.914Z,0.2
2023-04-25T16:18:58.170Z,0.3
2023-04-25T16:21:01.164Z,0.1
2023-04-25T16:22:04.240Z,0
2023-04-25T16:28:13.320Z,0.1
2023-04-25T16:34:25.584Z,0.1
2023-04-25T16:36:28.635Z,0
2023-04-25T16:38:31.682Z,0
2023-04-25T16:40:35.072Z,1.5
2023-04-25T16:44:44.146Z,0
2023-04-25T16:46:47.320Z,0.1
2023-04-25T16:48:50.700Z,0.1
2023-04-25T16:50:53.597Z,0.2
2023-04-25T16:52:56.990Z,0
2023-04-25T16:57:03.064Z,0
2023-04-25T16:59:09.411Z,1.4
2023-04-25T17:05:18.856Z,0
2023-04-25T17:09:25.102Z,0.1
2023-04-25T17:11:28.252Z,0.3
2023-04-25T17:20:10.682Z,0.1
2023-04-25T17:24:16.950Z,0.1
2023-04-25T17:26:23.281Z,0.9
2023-04-25T17:28:26.423Z,0.1
2023-04-25T17:30:29.574Z,0.3
2023-04-25T17:32:32.706Z,0
2023-04-25T17:34:35.832Z,0.1
2023-04-25T17:36:38.947Z,0.3
2023-04-25T17:38:42.077Z,0.3
2023-04-25T17:40:48.422Z,0.2
2023-04-25T17:42:51.567Z,1
2023-04-25T17:44:54.656Z,0.5
2023-04-25T17:46:57.806Z,0.4
2023-04-25T17:49:00.936Z,0.1
2023-04-25T17:51:04.068Z,0.6
2023-04-25T17:53:07.191Z,0.2
2023-04-25T17:57:16.654Z,0.4
2023-04-25T17:59:19.780Z,0.2
2023-04-25T18:01:23.197Z,0.4
2023-04-25T18:03:26.186Z,0.2
2023-04-25T18:05:31.056Z,0.4
2023-04-25T18:07:32.229Z,0.4
2023-04-25T18:09:38.598Z,0.7
2023-04-25T18:13:44.858Z,0.4
2023-04-25T18:14:48.000Z,1.3
2023-04-25T18:16:51.109Z,0.2
2023-04-25T18:18:54.612Z,0
2023-04-25T18:20:57.357Z,0.2
2023-04-25T18:23:03.763Z,1.8
2023-04-25T18:25:06.851Z,0
2023-04-25T18:27:09.919Z,0.1
2023-04-25T18:29:21.977Z,0.1
2023-04-25T18:33:19.283Z,0.2
2023-04-25T18:35:22.418Z,1.4
2023-04-25T18:37:28.721Z,0.3
2023-04-25T18:39:31.837Z,0.9
2023-04-25T18:41:53.399Z,0.5
2023-04-25T18:45:41.247Z,0.3
2023-04-25T18:49:47.395Z,1
2023-04-25T18:55:59.965Z,0.4
2023-04-25T19:02:10.329Z,0.5
2023-04-25T19:06:19.684Z,0.2
2023-04-25T19:08:24.237Z,0.8
2023-04-25T19:11:29.064Z,1.4
2023-04-25T19:17:38.425Z,0.5
2023-04-25T19:19:44.717Z,0.5
2023-04-25T19:21:47.843Z,0.5
2023-04-25T19:23:51.143Z,0.2
2023-04-25T19:25:54.044Z,0.9
2023-04-25T19:30:00.234Z,0.8
2023-04-25T19:32:03.386Z,0.7
2023-04-25T19:34:09.724Z,2.9
2023-04-25T19:36:12.791Z,1.2
2023-04-25T19:38:15.917Z,0.5
2023-04-25T19:40:19.028Z,0.8
2023-04-25T19:48:34.654Z,1.5
2023-04-25T19:50:37.762Z,0.3
2023-04-25T20:00:54.725Z,1
2023-04-25T20:07:07.191Z,0.6
2023-04-25T20:08:10.357Z,0.2
2023-04-25T20:10:13.449Z,0.1
2023-04-25T20:12:16.512Z,1.3
2023-04-25T20:18:29.002Z,0.4
2023-04-25T20:20:32.124Z,0.8
2023-04-25T20:22:35.188Z,0.2
2023-04-25T20:30:50.776Z,1.4
2023-04-25T20:37:00.035Z,0.4
2023-04-25T20:39:03.128Z,0.4
2023-04-25T20:41:06.221Z,0.2
2023-04-25T20:43:09.288Z,0.6
2023-04-25T20:45:15.569Z,0.1
2023-04-25T20:47:18.683Z,0.4
2023-04-25T20:49:21.747Z,0.6
2023-04-25T20:51:24.837Z,1
2023-04-25T20:53:27.929Z,0.5
2023-04-25T20:55:31.014Z,0.3
2023-04-25T20:57:34.098Z,0.7
2023-04-25T20:59:40.392Z,0.3
2023-04-25T21:03:46.714Z,1.3
2023-04-25T21:06:16.438Z,0.4
2023-04-25T21:08:19.517Z,1.2
2023-04-25T21:10:22.553Z,1.4
2023-04-25T21:16:35.242Z,0.9
2023-04-25T21:18:38.052Z,2
2023-04-25T21:24:47.249Z,1.4
2023-04-25T21:26:53.539Z,1.7
2023-04-25T21:28:56.615Z,1
2023-04-25T21:43:21.274Z,1.4
2023-04-25T21:45:24.345Z,0.8
2023-04-25T21:49:30.471Z,1.5
2023-04-25T21:51:33.531Z,1.6
2023-04-25T21:53:36.576Z,0.3
2023-04-25T21:55:42.876Z,1.1
2023-04-25T21:57:45.927Z,0.7
2023-04-25T22:02:55.406Z,1
2023-04-25T22:04:58.289Z,1
2023-04-25T22:07:01.285Z,1.3
2023-04-25T22:09:07.522Z,0.8
2023-04-25T22:11:10.581Z,1
2023-04-25T22:13:13.640Z,1.7
2023-04-25T22:17:19.731Z,1.7
2023-04-25T22:19:22.792Z,1
2023-04-25T22:21:25.828Z,0.9
2023-04-25T22:23:32.085Z,1.3
2023-04-25T22:27:38.156Z,0.4
2023-04-25T22:29:41.206Z,0.6
2023-04-25T22:31:44.325Z,2.1
2023-04-25T22:33:47.299Z,1.5
2023-04-25T22:35:50.351Z,1.4
2023-04-25T22:37:56.583Z,1.4
2023-04-25T22:42:02.703Z,1.9
2023-04-25T22:44:05.734Z,0.9
2023-04-25T22:46:08.761Z,2
2023-04-25T22:48:11.866Z,1.5
2023-04-25T22:50:14.825Z,0.7
2023-04-25T22:52:21.061Z,1.3
2023-04-25T22:54:24.118Z,1.6
2023-04-25T22:56:27.148Z,1.7
2023-04-25T22:57:30.263Z,0.9
2023-04-25T23:01:36.405Z,2.4
2023-04-25T23:05:45.623Z,2.4
2023-04-25T23:09:51.672Z,2.2
2023-04-25T23:16:00.790Z,2.4
2023-04-25T23:22:13.083Z,1.8
2023-04-25T23:24:16.140Z,1.6
2023-04-25T23:28:22.181Z,2.4
2023-04-25T23:30:25.219Z,1.6
2023-04-25T23:32:28.249Z,2.3
2023-04-25T23:34:34.475Z,2.5
2023-04-25T23:40:43.553Z,3.1
2023-04-25T23:46:52.631Z,2.7
2023-04-25T23:51:01.912Z,2.2
2023-04-25T23:54:08.037Z,2.6
2023-04-25T23:56:11.057Z,2
2023-04-25T23:58:14.091Z,3.4
